sensor_id;sensor_type;location;lat;lon;timestamp;pressure;altitude;pressure_sealevel;temperature;humidity
38939;BME280;24211;49.980;19.776;2023-05-20T00:01:49;100263.50;;;11.77;100.00
38939;BME280;24211;49.980;19.776;2023-05-20T00:04:16;100257.56;;;11.69;100.00
38939;BME280;24211;49.980;19.776;2023-05-20T00:06:43;100261.66;;;11.58;100.00
38939;BME280;24211;49.980;19.776;2023-05-20T00:09:10;100254.06;;;11.68;100.00
38939;BME280;24211;49.980;19.776;2023-05-20T00:11:38;100260.63;;;11.72;100.00
38939;BME280;24211;49.980;19.776;2023-05-20T00:14:05;100260.19;;;11.62;100.00
38939;BME280;24211;49.980;19.776;2023-05-20T00:16:33;100254.88;;;11.69;100.00
38939;BME280;24211;49.980;19.776;2023-05-20T00:19:00;100254.25;;;11.73;100.00
38939;BME280;24211;49.980;19.776;2023-05-20T00:21:27;100250.56;;;11.68;100.00
38939;BME280;24211;49.980;19.776;2023-05-20T00:23:55;100256.09;;;11.66;100.00
38939;BME280;24211;49.980;19.776;2023-05-20T00:26:22;100252.81;;;11.64;100.00
38939;BME280;24211;49.980;19.776;2023-05-20T00:28:53;100246.63;;;11.57;100.00
38939;BME280;24211;49.980;19.776;2023-05-20T00:31:21;100246.84;;;11.56;100.00
38939;BME280;24211;49.980;19.776;2023-05-20T00:33:48;100253.63;;;11.58;100.00
38939;BME280;24211;49.980;19.776;2023-05-20T00:36:15;100256.72;;;11.62;100.00
38939;BME280;24211;49.980;19.776;2023-05-20T00:38:42;100249.50;;;11.56;100.00
38939;BME280;24211;49.980;19.776;2023-05-20T00:41:09;100240.84;;;11.60;100.00
38939;BME280;24211;49.980;19.776;2023-05-20T00:43:36;100243.72;;;11.65;100.00
38939;BME280;24211;49.980;19.776;2023-05-20T00:46:04;100238.59;;;11.70;100.00
38939;BME280;24211;49.980;19.776;2023-05-20T00:48:42;100235.50;;;11.60;100.00
38939;BME280;24211;49.980;19.776;2023-05-20T00:51:12;100231.00;;;11.54;100.00
38939;BME280;24211;49.980;19.776;2023-05-20T00:53:41;100229.75;;;11.63;100.00
38939;BME280;24211;49.980;19.776;2023-05-20T00:56:08;100228.31;;;11.48;100.00
38939;BME280;24211;49.980;19.776;2023-05-20T00:58:37;100226.84;;;11.58;100.00
38939;BME280;24211;49.980;19.776;2023-05-20T01:01:05;100232.19;;;11.65;100.00
38939;BME280;24211;49.980;19.776;2023-05-20T01:03:33;100217.38;;;11.62;100.00
38939;BME280;24211;49.980;19.776;2023-05-20T01:06:01;100223.56;;;11.63;100.00
38939;BME280;24211;49.980;19.776;2023-05-20T01:08:29;100222.72;;;11.62;100.00
38939;BME280;24211;49.980;19.776;2023-05-20T01:11:07;100219.84;;;11.57;100.00
38939;BME280;24211;49.980;19.776;2023-05-20T01:13:51;100216.97;;;11.65;100.00
38939;BME280;24211;49.980;19.776;2023-05-20T01:16:23;100215.13;;;11.59;100.00
38939;BME280;24211;49.980;19.776;2023-05-20T01:18:54;100225.00;;;11.59;100.00
38939;BME280;24211;49.980;19.776;2023-05-20T01:21:22;100219.25;;;11.62;100.00
38939;BME280;24211;49.980;19.776;2023-05-20T01:23:49;100217.59;;;11.61;100.00
38939;BME280;24211;49.980;19.776;2023-05-20T01:26:17;100204.63;;;11.64;100.00
38939;BME280;24211;49.980;19.776;2023-05-20T01:28:45;100203.19;;;11.68;100.00
38939;BME280;24211;49.980;19.776;2023-05-20T01:31:31;100212.88;;;11.56;100.00
38939;BME280;24211;49.980;19.776;2023-05-20T01:34:00;100205.91;;;11.42;100.00
38939;BME280;24211;49.980;19.776;2023-05-20T01:36:29;100208.75;;;11.41;100.00
38939;BME280;24211;49.980;19.776;2023-05-20T01:38:57;100207.72;;;11.48;100.00
38939;BME280;24211;49.980;19.776;2023-05-20T01:41:27;100211.22;;;11.55;100.00
38939;BME280;24211;49.980;19.776;2023-05-20T01:43:56;100211.63;;;11.52;100.00
38939;BME280;24211;49.980;19.776;2023-05-20T01:46:23;100210.81;;;11.52;100.00
38939;BME280;24211;49.980;19.776;2023-05-20T01:48:51;100212.03;;;11.56;100.00
38939;BME280;24211;49.980;19.776;2023-05-20T01:51:18;100207.50;;;11.56;100.00
38939;BME280;24211;49.980;19.776;2023-05-20T01:53:46;100208.72;;;11.60;100.00
38939;BME280;24211;49.980;19.776;2023-05-20T01:56:13;100224.41;;;11.50;100.00
38939;BME280;24211;49.980;19.776;2023-05-20T01:58:40;100224.00;;;11.47;100.00
38939;BME280;24211;49.980;19.776;2023-05-20T02:01:08;100224.41;;;11.50;100.00
38939;BME280;24211;49.980;19.776;2023-05-20T02:03:35;100218.22;;;11.43;100.00
38939;BME280;24211;49.980;19.776;2023-05-20T02:06:02;100217.00;;;11.46;100.00
38939;BME280;24211;49.980;19.776;2023-05-20T02:08:29;100215.75;;;11.35;100.00
38939;BME280;24211;49.980;19.776;2023-05-20T02:10:59;100216.97;;;11.52;100.00
38939;BME280;24211;49.980;19.776;2023-05-20T02:13:26;100216.56;;;11.62;100.00
38939;BME280;24211;49.980;19.776;2023-05-20T02:15:54;100214.09;;;11.60;100.00
38939;BME280;24211;49.980;19.776;2023-05-20T02:18:23;100212.47;;;11.59;100.00
38939;BME280;24211;49.980;19.776;2023-05-20T02:20:52;100219.44;;;11.60;100.00
38939;BME280;24211;49.980;19.776;2023-05-20T02:23:19;100224.38;;;11.63;100.00
38939;BME280;24211;49.980;19.776;2023-05-20T02:25:47;100216.13;;;11.65;100.00
38939;BME280;24211;49.980;19.776;2023-05-20T02:28:14;100221.09;;;11.68;100.00
38939;BME280;24211;49.980;19.776;2023-05-20T02:30:42;100225.00;;;11.65;100.00
38939;BME280;24211;49.980;19.776;2023-05-20T02:33:09;100222.31;;;11.65;100.00
38939;BME280;24211;49.980;19.776;2023-05-20T02:35:36;100220.25;;;11.67;100.00
38939;BME280;24211;49.980;19.776;2023-05-20T02:38:03;100221.94;;;11.68;100.00
38939;BME280;24211;49.980;19.776;2023-05-20T02:40:31;100218.63;;;11.66;100.00
38939;BME280;24211;49.980;19.776;2023-05-20T02:42:59;100217.41;;;11.69;100.00
38939;BME280;24211;49.980;19.776;2023-05-20T02:45:28;100225.66;;;11.54;100.00
38939;BME280;24211;49.980;19.776;2023-05-20T02:47:55;100221.94;;;11.62;100.00
38939;BME280;24211;49.980;19.776;2023-05-20T02:50:23;100222.31;;;11.65;100.00
38939;BME280;24211;49.980;19.776;2023-05-20T02:52:50;100228.94;;;11.69;100.00
38939;BME280;24211;49.980;19.776;2023-05-20T02:55:18;100236.75;;;11.64;100.00
38939;BME280;24211;49.980;19.776;2023-05-20T02:57:45;100231.81;;;11.61;100.00
38939;BME280;24211;49.980;19.776;2023-05-20T03:00:13;100226.44;;;11.61;100.00
38939;BME280;24211;49.980;19.776;2023-05-20T03:02:41;100223.97;;;11.60;100.00
38939;BME280;24211;49.980;19.776;2023-05-20T03:05:08;100232.22;;;11.58;100.00
38939;BME280;24211;49.980;19.776;2023-05-20T03:07:36;100232.63;;;11.55;100.00
38939;BME280;24211;49.980;19.776;2023-05-20T03:10:06;100235.09;;;11.50;100.00
38939;BME280;24211;49.980;19.776;2023-05-20T03:12:37;100227.88;;;11.57;100.00
38939;BME280;24211;49.980;19.776;2023-05-20T03:15:06;100228.91;;;11.63;100.00
38939;BME280;24211;49.980;19.776;2023-05-20T03:17:34;100228.06;;;11.62;100.00
38939;BME280;24211;49.980;19.776;2023-05-20T03:20:02;100232.41;;;11.63;100.00
38939;BME280;24211;49.980;19.776;2023-05-20T03:22:30;100241.06;;;11.52;100.00
38939;BME280;24211;49.980;19.776;2023-05-20T03:24:57;100236.13;;;11.56;100.00
38939;BME280;24211;49.980;19.776;2023-05-20T03:27:26;100233.44;;;11.56;100.00
38939;BME280;24211;49.980;19.776;2023-05-20T03:29:55;100234.91;;;11.58;100.00
38939;BME280;24211;49.980;19.776;2023-05-20T03:32:23;100225.41;;;11.62;100.00
38939;BME280;24211;49.980;19.776;2023-05-20T03:34:50;100231.41;;;11.64;100.00
38939;BME280;24211;49.980;19.776;2023-05-20T03:37:18;100233.44;;;11.62;100.00
38939;BME280;24211;49.980;19.776;2023-05-20T03:39:45;100227.28;;;11.62;100.00
38939;BME280;24211;49.980;19.776;2023-05-20T03:42:12;100220.69;;;11.51;100.00
38939;BME280;24211;49.980;19.776;2023-05-20T03:44:40;100221.72;;;11.50;100.00
38939;BME280;24211;49.980;19.776;2023-05-20T03:47:07;100226.84;;;11.58;100.00
38939;BME280;24211;49.980;19.776;2023-05-20T03:49:34;100223.56;;;11.63;100.00
38939;BME280;24211;49.980;19.776;2023-05-20T03:52:02;100235.53;;;11.47;100.00
38939;BME280;24211;49.980;19.776;2023-05-20T03:54:30;100231.78;;;11.55;100.00
38939;BME280;24211;49.980;19.776;2023-05-20T03:56:58;100235.69;;;11.65;100.00
38939;BME280;24211;49.980;19.776;2023-05-20T03:59:28;100236.97;;;11.69;100.00
38939;BME280;24211;49.980;19.776;2023-05-20T04:01:55;100239.84;;;11.68;100.00
38939;BME280;24211;49.980;19.776;2023-05-20T04:04:23;100239.22;;;11.72;100.00
38939;BME280;24211;49.980;19.776;2023-05-20T04:06:51;100231.78;;;11.74;100.00
38939;BME280;24211;49.980;19.776;2023-05-20T04:09:18;100229.75;;;11.76;100.00
38939;BME280;24211;49.980;19.776;2023-05-20T04:11:45;100225.22;;;11.70;100.00
38939;BME280;24211;49.980;19.776;2023-05-20T04:14:12;100238.97;;;11.67;100.00
38939;BME280;24211;49.980;19.776;2023-05-20T04:16:40;100240.88;;;11.67;100.00
38939;BME280;24211;49.980;19.776;2023-05-20T04:19:07;100237.59;;;11.71;100.00
38939;BME280;24211;49.980;19.776;2023-05-20T04:21:34;100241.69;;;11.74;100.00
38939;BME280;24211;49.980;19.776;2023-05-20T04:24:02;100235.91;;;11.77;100.00
38939;BME280;24211;49.980;19.776;2023-05-20T04:26:29;100236.31;;;11.80;100.00
38939;BME280;24211;49.980;19.776;2023-05-20T04:28:56;100244.16;;;11.75;100.00
38939;BME280;24211;49.980;19.776;2023-05-20T04:31:25;100242.50;;;11.74;100.00
38939;BME280;24211;49.980;19.776;2023-05-20T04:33:53;100239.81;;;11.74;100.00
38939;BME280;24211;49.980;19.776;2023-05-20T04:36:21;100249.50;;;11.75;100.00
38939;BME280;24211;49.980;19.776;2023-05-20T04:38:49;100249.91;;;11.72;100.00
38939;BME280;24211;49.980;19.776;2023-05-20T04:41:16;100247.03;;;11.80;100.00
38939;BME280;24211;49.980;19.776;2023-05-20T04:43:44;100245.19;;;11.81;100.00
38939;BME280;24211;49.980;19.776;2023-05-20T04:46:12;100240.63;;;11.88;100.00
38939;BME280;24211;49.980;19.776;2023-05-20T04:48:41;100232.97;;;11.92;100.00
38939;BME280;24211;49.980;19.776;2023-05-20T04:51:13;100246.38;;;11.92;100.00
38939;BME280;24211;49.980;19.776;2023-05-20T04:53:41;100245.56;;;11.91;100.00
38939;BME280;24211;49.980;19.776;2023-05-20T04:56:11;100236.66;;;11.97;100.00
38939;BME280;24211;49.980;19.776;2023-05-20T04:58:39;100237.31;;;11.93;100.00
38939;BME280;24211;49.980;19.776;2023-05-20T05:01:08;100247.81;;;12.01;100.00
38939;BME280;24211;49.980;19.776;2023-05-20T05:03:35;100240.97;;;12.05;100.00
38939;BME280;24211;49.980;19.776;2023-05-20T05:06:03;100239.53;;;12.09;100.00
38939;BME280;24211;49.980;19.776;2023-05-20T05:08:30;100244.91;;;12.09;100.00
38939;BME280;24211;49.980;19.776;2023-05-20T05:10:58;100250.25;;;12.09;100.00
38939;BME280;24211;49.980;19.776;2023-05-20T05:13:26;100240.75;;;12.13;100.00
38939;BME280;24211;49.980;19.776;2023-05-20T05:16:02;100244.63;;;12.17;100.00
38939;BME280;24211;49.980;19.776;2023-05-20T05:18:48;100250.19;;;12.22;100.00
38939;BME280;24211;49.980;19.776;2023-05-20T05:21:15;100250.22;;;12.15;100.00
38939;BME280;24211;49.980;19.776;2023-05-20T05:23:44;100250.22;;;12.15;100.00
38939;BME280;24211;49.980;19.776;2023-05-20T05:26:12;100251.00;;;12.22;100.00
38939;BME280;24211;49.980;19.776;2023-05-20T05:28:41;100255.13;;;12.25;100.00
38939;BME280;24211;49.980;19.776;2023-05-20T05:31:09;100256.16;;;12.24;100.00
38939;BME280;24211;49.980;19.776;2023-05-20T05:33:36;100256.16;;;12.24;100.00
38939;BME280;24211;49.980;19.776;2023-05-20T05:36:15;100255.91;;;12.32;100.00
38939;BME280;24211;49.980;19.776;2023-05-20T05:38:51;100249.09;;;12.36;100.00
38939;BME280;24211;49.980;19.776;2023-05-20T05:41:23;100257.94;;;12.43;100.00
38939;BME280;24211;49.980;19.776;2023-05-20T05:43:51;100262.84;;;12.46;100.00
38939;BME280;24211;49.980;19.776;2023-05-20T05:46:18;100259.09;;;12.54;100.00
38939;BME280;24211;49.980;19.776;2023-05-20T05:48:47;100267.38;;;12.52;100.00
38939;BME280;24211;49.980;19.776;2023-05-20T05:51:18;100259.50;;;12.57;100.00
38939;BME280;24211;49.980;19.776;2023-05-20T05:57:32;100253.22;;;12.76;100.00
38939;BME280;24211;49.980;19.776;2023-05-20T06:00:03;100248.25;;;12.80;100.00
38939;BME280;24211;49.980;19.776;2023-05-20T06:03:35;100254.50;;;12.67;100.00
38939;BME280;24211;49.980;19.776;2023-05-20T06:15:09;100251.47;;;12.88;100.00
38939;BME280;24211;49.980;19.776;2023-05-20T06:21:25;100262.56;;;12.98;100.00
38939;BME280;24211;49.980;19.776;2023-05-20T06:23:52;100246.63;;;13.03;100.00
38939;BME280;24211;49.980;19.776;2023-05-20T06:26:19;100243.88;;;13.17;100.00
38939;BME280;24211;49.980;19.776;2023-05-20T06:28:46;100244.66;;;13.24;100.00
38939;BME280;24211;49.980;19.776;2023-05-20T06:31:14;100246.94;;;13.20;100.00
38939;BME280;24211;49.980;19.776;2023-05-20T06:33:42;100255.03;;;13.14;100.00
38939;BME280;24211;49.980;19.776;2023-05-20T06:36:12;100240.13;;;13.18;100.00
38939;BME280;24211;49.980;19.776;2023-05-20T06:38:39;100245.06;;;13.21;100.00
38939;BME280;24211;49.980;19.776;2023-05-20T06:41:07;100256.25;;;13.18;100.00
38939;BME280;24211;49.980;19.776;2023-05-20T06:43:34;100251.94;;;13.17;100.00
38939;BME280;24211;49.980;19.776;2023-05-20T06:46:09;100243.75;;;13.30;100.00
38939;BME280;24211;49.980;19.776;2023-05-20T06:48:47;100247.03;;;13.32;100.00
38939;BME280;24211;49.980;19.776;2023-05-20T06:51:16;100249.59;;;13.27;100.00
38939;BME280;24211;49.980;19.776;2023-05-20T06:53:45;100242.88;;;13.36;100.00
38939;BME280;24211;49.980;19.776;2023-05-20T06:56:14;100230.22;;;13.43;100.00
38939;BME280;24211;49.980;19.776;2023-05-20T06:58:42;100235.75;;;13.48;100.00
38939;BME280;24211;49.980;19.776;2023-05-20T07:01:09;100224.88;;;13.61;100.00
38939;BME280;24211;49.980;19.776;2023-05-20T07:03:37;100221.97;;;13.62;100.00
38939;BME280;24211;49.980;19.776;2023-05-20T07:06:05;100220.13;;;13.63;100.00
38939;BME280;24211;49.980;19.776;2023-05-20T07:08:32;100216.63;;;13.81;100.00
38939;BME280;24211;49.980;19.776;2023-05-20T07:11:00;100211.31;;;13.92;100.00
38939;BME280;24211;49.980;19.776;2023-05-20T07:13:29;100194.91;;;14.00;100.00
38939;BME280;24211;49.980;19.776;2023-05-20T07:15:58;100199.78;;;14.03;100.00
38939;BME280;24211;49.980;19.776;2023-05-20T07:18:26;100197.41;;;14.13;100.00
38939;BME280;24211;49.980;19.776;2023-05-20T07:20:56;100191.84;;;14.26;100.00
38939;BME280;24211;49.980;19.776;2023-05-20T07:23:33;100190.53;;;14.35;100.00
38939;BME280;24211;49.980;19.776;2023-05-20T07:26:01;100199.66;;;14.34;100.00
38939;BME280;24211;49.980;19.776;2023-05-20T07:28:29;100194.88;;;14.36;100.00
38939;BME280;24211;49.980;19.776;2023-05-20T07:30:57;100193.03;;;14.49;100.00
38939;BME280;24211;49.980;19.776;2023-05-20T07:33:28;100192.09;;;14.55;100.00
38939;BME280;24211;49.980;19.776;2023-05-20T07:35:57;100186.06;;;14.59;100.00
38939;BME280;24211;49.980;19.776;2023-05-20T07:38:24;100185.69;;;14.56;100.00
38939;BME280;24211;49.980;19.776;2023-05-20T07:40:56;100187.19;;;14.52;100.00
38939;BME280;24211;49.980;19.776;2023-05-20T07:43:23;100185.69;;;14.56;100.00
38939;BME280;24211;49.980;19.776;2023-05-20T07:45:51;100187.59;;;14.67;100.00
38939;BME280;24211;49.980;19.776;2023-05-20T07:48:18;100184.44;;;14.70;100.00
38939;BME280;24211;49.980;19.776;2023-05-20T07:50:45;100184.94;;;14.78;100.00
38939;BME280;24211;49.980;19.776;2023-05-20T07:53:14;100178.28;;;14.81;100.00
38939;BME280;24211;49.980;19.776;2023-05-20T07:55:41;100180.03;;;14.87;100.00
38939;BME280;24211;49.980;19.776;2023-05-20T07:58:09;100180.59;;;14.89;100.00
38939;BME280;24211;49.980;19.776;2023-05-20T08:00:36;100177.38;;;14.98;100.00
38939;BME280;24211;49.980;19.776;2023-05-20T08:03:06;100178.78;;;15.01;100.00
38939;BME280;24211;49.980;19.776;2023-05-20T08:05:46;100172.56;;;15.12;100.00
38939;BME280;24211;49.980;19.776;2023-05-20T08:08:14;100173.63;;;15.11;100.00
38939;BME280;24211;49.980;19.776;2023-05-20T08:10:56;100171.03;;;15.16;100.00
38939;BME280;24211;49.980;19.776;2023-05-20T08:13:25;100170.59;;;15.19;100.00
38939;BME280;24211;49.980;19.776;2023-05-20T08:15:53;100160.88;;;15.30;100.00
38939;BME280;24211;49.980;19.776;2023-05-20T08:18:21;100164.97;;;15.32;100.00
38939;BME280;24211;49.980;19.776;2023-05-20T08:20:49;100156.28;;;15.42;100.00
38939;BME280;24211;49.980;19.776;2023-05-20T08:23:17;100156.78;;;15.50;100.00
38939;BME280;24211;49.980;19.776;2023-05-20T08:25:44;100152.09;;;15.57;100.00
38939;BME280;24211;49.980;19.776;2023-05-20T08:28:15;100163.69;;;15.58;100.00
38939;BME280;24211;49.980;19.776;2023-05-20T08:30:44;100157.00;;;15.60;100.00
38939;BME280;24211;49.980;19.776;2023-05-20T08:33:11;100151.81;;;15.70;100.00
38939;BME280;24211;49.980;19.776;2023-05-20T08:35:39;100153.34;;;15.78;100.00
38939;BME280;24211;49.980;19.776;2023-05-20T08:41:51;100154.53;;;15.82;100.00
38939;BME280;24211;49.980;19.776;2023-05-20T08:44:20;100162.34;;;15.84;100.00
38939;BME280;24211;49.980;19.776;2023-05-20T08:46:49;100147.22;;;15.94;100.00
38939;BME280;24211;49.980;19.776;2023-05-20T08:49:19;100145.41;;;16.00;100.00
38939;BME280;24211;49.980;19.776;2023-05-20T08:51:46;100149.88;;;16.06;100.00
38939;BME280;24211;49.980;19.776;2023-05-20T08:54:15;100139.84;;;16.18;100.00
38939;BME280;24211;49.980;19.776;2023-05-20T08:56:43;100148.28;;;16.21;100.00
38939;BME280;24211;49.980;19.776;2023-05-20T08:59:10;100152.88;;;16.21;100.00
38939;BME280;24211;49.980;19.776;2023-05-20T09:01:41;100139.31;;;16.32;100.00
38939;BME280;24211;49.980;19.776;2023-05-20T09:04:11;100147.84;;;16.41;100.00
38939;BME280;24211;49.980;19.776;2023-05-20T09:06:46;100145.81;;;16.48;100.00
38939;BME280;24211;49.980;19.776;2023-05-20T09:09:14;100149.00;;;16.45;100.00
38939;BME280;24211;49.980;19.776;2023-05-20T09:11:42;100143.59;;;16.45;100.00
38939;BME280;24211;49.980;19.776;2023-05-20T09:14:09;100150.03;;;16.56;100.00
38939;BME280;24211;49.980;19.776;2023-05-20T09:16:38;100143.81;;;16.72;100.00
38939;BME280;24211;49.980;19.776;2023-05-20T09:19:06;100144.66;;;16.72;100.00
38939;BME280;24211;49.980;19.776;2023-05-20T09:21:34;100148.09;;;16.84;100.00
38939;BME280;24211;49.980;19.776;2023-05-20T09:24:03;100142.19;;;16.87;100.00
38939;BME280;24211;49.980;19.776;2023-05-20T09:26:30;100139.91;;;16.79;100.00
38939;BME280;24211;49.980;19.776;2023-05-20T09:28:59;100138.94;;;16.85;100.00
38939;BME280;24211;49.980;19.776;2023-05-20T09:31:29;100134.59;;;16.84;100.00
38939;BME280;24211;49.980;19.776;2023-05-20T09:34:02;100135.81;;;16.93;100.00
38939;BME280;24211;49.980;19.776;2023-05-20T09:36:31;100129.75;;;16.86;100.00
38939;BME280;24211;49.980;19.776;2023-05-20T09:39:02;100123.38;;;16.92;100.00
38939;BME280;24211;49.980;19.776;2023-05-20T09:41:54;100130.25;;;17.00;100.00
38939;BME280;24211;49.980;19.776;2023-05-20T09:44:23;100134.19;;;16.92;100.00
38939;BME280;24211;49.980;19.776;2023-05-20T09:46:52;100123.47;;;16.97;100.00
38939;BME280;24211;49.980;19.776;2023-05-20T09:49:21;100130.34;;;17.05;100.00
38939;BME280;24211;49.980;19.776;2023-05-20T09:51:50;100137.16;;;17.13;100.00
38939;BME280;24211;49.980;19.776;2023-05-20T09:59:39;100147.50;;;17.16;100.00
38939;BME280;24211;49.980;19.776;2023-05-20T10:02:07;100140.88;;;17.07;100.00
38939;BME280;24211;49.980;19.776;2023-05-20T10:04:37;100145.28;;;17.13;100.00
38939;BME280;24211;49.980;19.776;2023-05-20T10:07:58;100144.28;;;17.35;100.00
38939;BME280;24211;49.980;19.776;2023-05-20T10:17:38;100136.44;;;17.34;100.00
38939;BME280;24211;49.980;19.776;2023-05-20T10:20:07;100132.78;;;17.45;100.00
38939;BME280;24211;49.980;19.776;2023-05-20T10:22:57;100122.63;;;17.52;100.00
38939;BME280;24211;49.980;19.776;2023-05-20T10:25:27;100116.94;;;17.70;100.00
38939;BME280;24211;49.980;19.776;2023-05-20T10:28:07;100113.41;;;17.70;100.00
38939;BME280;24211;49.980;19.776;2023-05-20T10:30:35;100114.38;;;17.80;100.00
38939;BME280;24211;49.980;19.776;2023-05-20T10:33:05;100114.91;;;17.82;100.00
38939;BME280;24211;49.980;19.776;2023-05-20T10:35:33;100112.00;;;17.89;100.00
38939;BME280;24211;49.980;19.776;2023-05-20T10:38:11;100107.56;;;17.99;100.00
38939;BME280;24211;49.980;19.776;2023-05-20T10:41:08;100098.00;;;18.18;100.00
38939;BME280;24211;49.980;19.776;2023-05-20T10:43:41;100093.78;;;18.27;100.00
38939;BME280;24211;49.980;19.776;2023-05-20T10:46:17;100089.41;;;18.48;100.00
38939;BME280;24211;49.980;19.776;2023-05-20T10:49:33;100094.34;;;18.56;100.00
38939;BME280;24211;49.980;19.776;2023-05-20T10:52:02;100091.31;;;18.79;100.00
38939;BME280;24211;49.980;19.776;2023-05-20T10:54:35;100080.25;;;18.86;100.00
38939;BME280;24211;49.980;19.776;2023-05-20T10:57:07;100086.25;;;18.93;100.00
38939;BME280;24211;49.980;19.776;2023-05-20T10:59:35;100077.13;;;19.09;100.00
38939;BME280;24211;49.980;19.776;2023-05-20T11:02:03;100069.59;;;19.16;100.00
38939;BME280;24211;49.980;19.776;2023-05-20T11:04:31;100067.53;;;19.33;100.00
38939;BME280;24211;49.980;19.776;2023-05-20T11:06:59;100049.44;;;19.44;100.00
38939;BME280;24211;49.980;19.776;2023-05-20T11:10:20;100054.41;;;19.67;100.00
38939;BME280;24211;49.980;19.776;2023-05-20T11:12:48;100054.75;;;19.91;100.00
38939;BME280;24211;49.980;19.776;2023-05-20T11:15:15;100059.63;;;19.84;100.00
38939;BME280;24211;49.980;19.776;2023-05-20T11:17:54;100055.84;;;20.05;100.00
38939;BME280;24211;49.980;19.776;2023-05-20T11:20:23;100040.66;;;19.99;100.00
38939;BME280;24211;49.980;19.776;2023-05-20T11:22:51;100044.00;;;20.36;100.00
38939;BME280;24211;49.980;19.776;2023-05-20T11:25:46;100043.44;;;20.54;100.00
38939;BME280;24211;49.980;19.776;2023-05-20T11:28:38;100028.19;;;21.09;100.00
38939;BME280;24211;49.980;19.776;2023-05-20T11:31:05;100030.88;;;21.04;100.00
38939;BME280;24211;49.980;19.776;2023-05-20T11:33:33;100022.56;;;21.59;100.00
38939;BME280;24211;49.980;19.776;2023-05-20T11:36:01;100019.91;;;21.44;100.00
38939;BME280;24211;49.980;19.776;2023-05-20T11:38:30;100014.56;;;21.24;100.00
38939;BME280;24211;49.980;19.776;2023-05-20T11:40:58;100008.25;;;21.33;100.00
38939;BME280;24211;49.980;19.776;2023-05-20T11:43:25;100006.97;;;21.16;100.00
38939;BME280;24211;49.980;19.776;2023-05-20T11:45:55;99999.09;;;21.19;100.00
38939;BME280;24211;49.980;19.776;2023-05-20T11:48:26;99999.00;;;21.39;100.00
38939;BME280;24211;49.980;19.776;2023-05-20T11:50:55;99996.88;;;21.85;100.00
38939;BME280;24211;49.980;19.776;2023-05-20T11:53:23;99992.50;;;22.28;100.00
38939;BME280;24211;49.980;19.776;2023-05-20T11:56:00;99997.84;;;22.38;100.00
38939;BME280;24211;49.980;19.776;2023-05-20T11:58:29;99985.97;;;22.24;100.00
38939;BME280;24211;49.980;19.776;2023-05-20T12:00:57;99992.63;;;22.42;100.00
38939;BME280;24211;49.980;19.776;2023-05-20T12:03:39;99983.03;;;21.77;100.00
38939;BME280;24211;49.980;19.776;2023-05-20T12:06:10;99980.78;;;22.28;100.00
38939;BME280;24211;49.980;19.776;2023-05-20T12:08:38;99986.38;;;22.41;100.00
38939;BME280;24211;49.980;19.776;2023-05-20T12:11:05;99986.72;;;22.92;100.00
38939;BME280;24211;49.980;19.776;2023-05-20T12:13:32;99984.63;;;22.84;100.00
38939;BME280;24211;49.980;19.776;2023-05-20T12:19:47;99982.97;;;22.26;100.00
38939;BME280;24211;49.980;19.776;2023-05-20T12:22:14;99970.69;;;21.94;100.00
38939;BME280;24211;49.980;19.776;2023-05-20T12:24:42;99979.00;;;22.13;100.00
38939;BME280;24211;49.980;19.776;2023-05-20T12:27:09;99962.28;;;22.53;100.00
38939;BME280;24211;49.980;19.776;2023-05-20T12:29:36;99969.94;;;22.51;100.00
38939;BME280;24211;49.980;19.776;2023-05-20T12:32:04;99962.25;;;22.87;100.00
38939;BME280;24211;49.980;19.776;2023-05-20T12:34:31;99958.06;;;22.71;100.00
38939;BME280;24211;49.980;19.776;2023-05-20T12:36:58;99952.78;;;22.51;100.00
38939;BME280;24211;49.980;19.776;2023-05-20T12:39:26;99953.38;;;22.48;100.00
38939;BME280;24211;49.980;19.776;2023-05-20T12:46:25;99937.94;;;23.57;100.00
38939;BME280;24211;49.980;19.776;2023-05-20T12:49:09;99932.31;;;23.06;100.00
38939;BME280;24211;49.980;19.776;2023-05-20T12:51:37;99925.72;;;22.88;100.00
38939;BME280;24211;49.980;19.776;2023-05-20T12:54:05;99927.41;;;23.26;100.00
38939;BME280;24211;49.980;19.776;2023-05-20T12:56:32;99923.00;;;23.30;100.00
38939;BME280;24211;49.980;19.776;2023-05-20T13:03:34;99907.44;;;23.31;100.00
38939;BME280;24211;49.980;19.776;2023-05-20T13:06:02;99906.19;;;23.23;100.00
38939;BME280;24211;49.980;19.776;2023-05-20T13:08:30;99907.28;;;23.46;100.00
38939;BME280;24211;49.980;19.776;2023-05-20T13:10:57;99908.78;;;23.33;100.00
38939;BME280;24211;49.980;19.776;2023-05-20T13:13:24;99906.44;;;23.03;100.00
38939;BME280;24211;49.980;19.776;2023-05-20T13:15:51;99895.28;;;23.23;100.00
38939;BME280;24211;49.980;19.776;2023-05-20T13:18:21;99898.38;;;23.17;100.00
38939;BME280;24211;49.980;19.776;2023-05-20T13:20:49;99892.69;;;23.32;100.00
38939;BME280;24211;49.980;19.776;2023-05-20T13:23:16;99896.88;;;23.48;100.00
38939;BME280;24211;49.980;19.776;2023-05-20T13:25:44;99889.38;;;23.16;100.00
38939;BME280;24211;49.980;19.776;2023-05-20T13:33:15;99883.78;;;23.64;100.00
38939;BME280;24211;49.980;19.776;2023-05-20T13:35:45;99874.47;;;23.27;100.00